Time;durP1;ratioP1;P1;durP2;ratioP2;P2;SDS_P1;SDS_P2;PMS_P1;PMS_P2;Temp;Humidity;BMP_temperature;BMP_pressure;BME280_temperature;BME280_humidity;BME280_pressure;Samples;Min_cycle;Max_cycle;Signal;HPM_P1;HPM_P2
2021/07/10 00:02:25;;;;;;;11.33;8.47;;;15.80;99.90;;;;;;5052488;28;20201;-62
2021/07/10 00:04:52;;;;;;;11.40;8.13;;;15.70;99.90;;;;;;5052090;28;20229;-63
2021/07/10 00:07:18;;;;;;;9.43;8.13;;;15.80;99.90;;;;;;5052113;28;20221;-63
2021/07/10 00:09:45;;;;;;;9.60;8.60;;;15.90;99.90;;;;;;5052337;28;20271;-62
2021/07/10 00:12:12;;;;;;;9.33;8.17;;;15.80;99.90;;;;;;5052406;28;20205;-63
2021/07/10 00:14:39;;;;;;;11.03;8.77;;;15.80;99.90;;;;;;5051370;28;20316;-63
2021/07/10 00:17:07;;;;;;;10.43;9.10;;;15.80;99.90;;;;;;5052042;28;20669;-62
2021/07/10 00:19:34;;;;;;;15.57;8.97;;;15.80;99.90;;;;;;5051947;28;20213;-62
2021/07/10 00:22:01;;;;;;;10.77;9.70;;;15.80;99.90;;;;;;5052009;28;20229;-62
2021/07/10 00:24:30;;;;;;;11.33;9.30;;;15.70;99.90;;;;;;5051758;28;20237;-62
2021/07/10 00:26:57;;;;;;;9.73;8.73;;;15.80;99.90;;;;;;5051977;28;20670;-62
2021/07/10 00:29:24;;;;;;;11.13;8.40;;;15.80;99.90;;;;;;5051892;28;20210;-62
2021/07/10 00:31:51;;;;;;;10.30;9.17;;;15.70;99.90;;;;;;5052340;28;20201;-63
2021/07/10 00:34:19;;;;;;;15.50;9.23;;;15.60;99.90;;;;;;5051686;28;20607;-62
2021/07/10 00:36:45;;;;;;;10.17;8.30;;;15.40;99.90;;;;;;5052118;28;20256;-62
2021/07/10 00:39:12;;;;;;;11.73;8.97;;;15.60;99.90;;;;;;5051998;28;20214;-62
2021/07/10 00:41:39;;;;;;;11.63;8.13;;;15.60;99.90;;;;;;5051883;28;20255;-62
2021/07/10 00:44:06;;;;;;;12.20;8.50;;;15.50;99.90;;;;;;5051432;28;20225;-62
2021/07/10 00:46:32;;;;;;;9.90;8.60;;;15.40;99.90;;;;;;5051448;28;20279;-62
2021/07/10 00:48:59;;;;;;;9.70;8.70;;;15.50;99.90;;;;;;5051751;28;20201;-62
2021/07/10 00:51:27;;;;;;;12.77;8.97;;;15.40;99.90;;;;;;5051638;28;20202;-62
2021/07/10 00:53:54;;;;;;;10.77;8.97;;;16.30;99.90;;;;;;5051329;28;20225;-62
2021/07/10 00:56:21;;;;;;;11.40;8.70;;;15.30;99.90;;;;;;5051346;28;20767;-62
2021/07/10 00:58:49;;;;;;;14.27;9.33;;;15.20;99.90;;;;;;5051202;28;20205;-62
2021/07/10 01:01:16;;;;;;;12.93;9.23;;;15.30;99.90;;;;;;5051341;28;20271;-62
2021/07/10 01:03:45;;;;;;;13.13;8.63;;;15.20;99.90;;;;;;5050837;28;20229;-62
2021/07/10 01:06:13;;;;;;;9.50;8.23;;;15.20;99.90;;;;;;5051195;28;20229;-62
2021/07/10 01:08:41;;;;;;;11.63;8.23;;;15.20;99.90;;;;;;5051327;28;20211;-62
2021/07/10 01:11:09;;;;;;;11.43;8.87;;;15.20;99.90;;;;;;5051363;28;20206;-62
2021/07/10 01:13:36;;;;;;;14.97;8.87;;;15.10;99.90;;;;;;5050959;28;20225;-62
2021/07/10 01:16:04;;;;;;;12.10;9.17;;;15.10;99.90;;;;;;5051093;28;20202;-62
2021/07/10 01:18:31;;;;;;;10.13;8.93;;;15.00;99.90;;;;;;5051383;28;20217;-62
2021/07/10 01:20:59;;;;;;;14.07;9.20;;;15.00;99.90;;;;;;5051185;28;20209;-62
2021/07/10 01:23:26;;;;;;;10.60;9.37;;;15.00;99.90;;;;;;5050968;28;20238;-62
2021/07/10 01:25:53;;;;;;;13.60;9.30;;;15.00;99.90;;;;;;5050179;28;20229;-62
2021/07/10 01:28:20;;;;;;;11.17;9.00;;;15.00;99.90;;;;;;5051168;28;20217;-62
2021/07/10 01:30:49;;;;;;;12.63;9.10;;;15.00;99.90;;;;;;5051171;28;20202;-62
2021/07/10 01:33:16;;;;;;;9.40;8.33;;;15.30;99.90;;;;;;5051137;28;20247;-62
2021/07/10 01:35:43;;;;;;;11.40;8.27;;;14.90;99.90;;;;;;5050735;28;20205;-63
2021/07/10 01:38:13;;;;;;;14.13;8.87;;;14.90;99.90;;;;;;5051014;28;20201;-62
2021/07/10 01:40:42;;;;;;;12.53;9.20;;;14.90;99.90;;;;;;5051031;28;20637;-62
2021/07/10 01:43:10;;;;;;;14.67;9.20;;;14.90;99.90;;;;;;5050617;28;20279;-63
2021/07/10 01:45:37;;;;;;;11.40;9.10;;;14.90;99.90;;;;;;5050754;28;20229;-62
2021/07/10 01:48:05;;;;;;;10.07;8.83;;;14.90;99.90;;;;;;5050879;28;20205;-62
2021/07/10 01:50:32;;;;;;;14.67;10.40;;;14.80;99.90;;;;;;5050681;28;20209;-62
2021/07/10 01:52:59;;;;;;;10.67;8.60;;;14.80;99.90;;;;;;5050564;28;20634;-63
2021/07/10 01:55:28;;;;;;;11.23;8.90;;;14.80;99.90;;;;;;5050549;28;20628;-63
2021/07/10 01:57:55;;;;;;;13.87;9.37;;;14.70;99.90;;;;;;5050468;28;20669;-62
2021/07/10 02:00:24;;;;;;;13.90;9.60;;;14.80;99.90;;;;;;5050773;28;20213;-62
2021/07/10 02:02:51;;;;;;;10.30;9.20;;;14.70;99.90;;;;;;5050620;28;20228;-63
2021/07/10 02:05:19;;;;;;;11.83;9.17;;;14.60;99.90;;;;;;5050384;28;20205;-63
2021/07/10 02:07:47;;;;;;;10.70;8.50;;;14.60;99.90;;;;;;5050461;28;20206;-63
2021/07/10 02:10:15;;;;;;;14.07;9.13;;;14.60;99.90;;;;;;5050417;28;20296;-63
2021/07/10 02:12:44;;;;;;;16.03;9.23;;;14.50;99.90;;;;;;5050802;28;20213;-63
2021/07/10 02:15:12;;;;;;;11.90;9.67;;;14.60;99.90;;;;;;5050506;28;20292;-62
2021/07/10 02:17:41;;;;;;;14.43;9.67;;;14.60;99.90;;;;;;5050490;28;20306;-62
2021/07/10 02:20:09;;;;;;;10.93;8.67;;;14.60;99.90;;;;;;5050352;28;20206;-62
2021/07/10 02:22:36;;;;;;;10.33;9.00;;;14.60;99.90;;;;;;5050343;28;20677;-62
2021/07/10 02:25:05;;;;;;;12.23;10.37;;;14.60;99.90;;;;;;5050546;28;20190;-62
2021/07/10 02:27:32;;;;;;;13.57;10.33;;;14.60;99.90;;;;;;5050643;28;20262;-62
2021/07/10 02:30:00;;;;;;;11.87;9.07;;;14.40;99.90;;;;;;5050572;28;20206;-62
2021/07/10 02:32:27;;;;;;;12.43;9.40;;;14.40;99.90;;;;;;5050357;28;20682;-62
2021/07/10 02:34:53;;;;;;;10.83;9.03;;;14.40;99.90;;;;;;5050082;28;20218;-62
2021/07/10 02:37:20;;;;;;;12.43;9.13;;;14.40;99.90;;;;;;5052188;28;20260;-62
2021/07/10 02:39:47;;;;;;;11.97;8.70;;;14.40;99.90;;;;;;5054072;28;20213;-62
2021/07/10 02:42:13;;;;;;;11.63;9.23;;;14.50;99.90;;;;;;5054225;28;20270;-62
2021/07/10 02:44:40;;;;;;;12.17;9.83;;;14.40;99.90;;;;;;5053573;28;20774;-62
2021/07/10 02:47:08;;;;;;;12.17;9.70;;;14.40;99.90;;;;;;5053850;28;20600;-62
2021/07/10 02:49:35;;;;;;;11.30;9.97;;;14.60;99.90;;;;;;5054085;28;20680;-62
2021/07/10 02:52:02;;;;;;;13.67;9.80;;;14.50;99.90;;;;;;5053803;28;20562;-62
2021/07/10 02:54:29;;;;;;;10.00;8.97;;;14.50;99.90;;;;;;5053747;28;20260;-62
2021/07/10 02:56:56;;;;;;;13.03;9.27;;;14.40;99.90;;;;;;5053888;28;20210;-62
2021/07/10 02:59:22;;;;;;;10.60;9.37;;;14.40;99.90;;;;;;5053586;28;20209;-61
2021/07/10 03:01:49;;;;;;;11.57;9.80;;;14.40;99.90;;;;;;5053681;28;20259;-61
2021/07/10 03:04:17;;;;;;;11.00;9.47;;;14.40;99.90;;;;;;5053425;28;20331;-61
2021/07/10 03:06:44;;;;;;;14.47;9.63;;;14.40;99.90;;;;;;5053652;28;20229;-61
2021/07/10 03:09:10;;;;;;;10.50;9.50;;;14.40;99.90;;;;;;5053461;28;20673;-63
2021/07/10 03:11:37;;;;;;;10.80;8.93;;;14.40;99.90;;;;;;5053331;28;20673;-62
2021/07/10 03:14:04;;;;;;;13.77;9.27;;;14.40;99.90;;;;;;5053465;28;20716;-63
2021/07/10 03:16:30;;;;;;;12.93;9.90;;;14.60;99.90;;;;;;5053736;28;20605;-63
2021/07/10 03:18:57;;;;;;;12.03;9.33;;;14.40;99.90;;;;;;5053116;28;20208;-63
2021/07/10 03:21:25;;;;;;;13.03;8.93;;;14.40;99.90;;;;;;5053312;28;20205;-62
2021/07/10 03:23:52;;;;;;;11.10;8.83;;;14.30;99.90;;;;;;5053523;28;20736;-62
2021/07/10 03:26:19;;;;;;;10.80;9.37;;;14.30;99.90;;;;;;5053215;28;20601;-62
2021/07/10 03:28:46;;;;;;;10.53;9.07;;;14.40;99.90;;;;;;5053390;28;20216;-63
2021/07/10 03:31:12;;;;;;;10.97;8.57;;;14.30;99.90;;;;;;5053557;28;20305;-62
2021/07/10 03:33:44;;;;;;;9.37;8.37;;;14.30;99.90;;;;;;5053392;28;20225;-63
2021/07/10 03:36:10;;;;;;;10.47;8.27;;;14.30;99.90;;;;;;5053246;28;20628;-62
2021/07/10 03:38:41;;;;;;;11.87;8.70;;;14.30;99.90;;;;;;5053232;28;20255;-62
2021/07/10 03:41:08;;;;;;;11.57;8.60;;;14.30;99.90;;;;;;5053296;28;20209;-61
2021/07/10 03:43:34;;;;;;;9.70;8.70;;;14.30;99.90;;;;;;5052457;28;20230;-61
2021/07/10 03:46:03;;;;;;;11.70;8.53;;;14.20;99.90;;;;;;5052585;28;20221;-61
2021/07/10 03:48:30;;;;;;;10.07;8.97;;;14.20;99.90;;;;;;5051792;28;20212;-60
2021/07/10 03:50:57;;;;;;;12.87;9.53;;;14.40;99.90;;;;;;5053175;28;20252;-60
2021/07/10 03:53:23;;;;;;;12.30;9.00;;;14.20;99.90;;;;;;5052708;28;20640;-64
2021/07/10 03:55:51;;;;;;;9.70;8.47;;;14.30;99.90;;;;;;5052822;28;20259;-61
2021/07/10 03:58:18;;;;;;;11.90;8.70;;;14.30;99.90;;;;;;5052319;28;20213;-60
2021/07/10 04:00:45;;;;;;;10.37;9.20;;;14.30;99.90;;;;;;5052385;28;20205;-61
2021/07/10 04:03:12;;;;;;;12.70;8.33;;;14.30;99.90;;;;;;5052461;28;20225;-61
2021/07/10 04:05:38;;;;;;;9.27;8.33;;;14.40;99.90;;;;;;5052176;28;20217;-61
2021/07/10 04:08:05;;;;;;;12.73;8.13;;;14.50;99.90;;;;;;5052613;28;20217;-60
2021/07/10 04:10:32;;;;;;;13.17;9.00;;;14.50;99.90;;;;;;5052725;28;20684;-60
2021/07/10 04:13:00;;;;;;;8.83;8.00;;;14.60;99.90;;;;;;5052435;28;20638;-63
2021/07/10 04:15:27;;;;;;;9.63;8.50;;;14.60;99.90;;;;;;5052556;28;20202;-61
2021/07/10 04:17:54;;;;;;;10.40;8.43;;;14.60;99.90;;;;;;5052029;28;20329;-60
2021/07/10 04:20:21;;;;;;;10.77;8.63;;;14.70;99.90;;;;;;5052606;28;20210;-61
2021/07/10 04:22:48;;;;;;;10.70;8.33;;;14.60;99.90;;;;;;5052421;28;20216;-61
2021/07/10 04:25:18;;;;;;;9.23;8.20;;;14.80;99.90;;;;;;5052505;28;20566;-61
2021/07/10 04:27:48;;;;;;;11.00;8.33;;;14.80;99.90;;;;;;5051603;28;20225;-61
2021/07/10 04:30:18;;;;;;;9.20;8.27;;;14.90;99.90;;;;;;5052092;28;20212;-61
2021/07/10 04:32:45;;;;;;;9.43;8.20;;;14.90;99.90;;;;;;5051882;28;20205;-61
2021/07/10 04:35:13;;;;;;;9.40;8.50;;;15.00;99.90;;;;;;5051720;28;20292;-61
2021/07/10 04:37:40;;;;;;;10.80;8.37;;;15.10;99.90;;;;;;5051722;28;20201;-61
2021/07/10 04:40:08;;;;;;;9.03;7.63;;;15.10;99.90;;;;;;5051803;28;20590;-60
2021/07/10 04:42:35;;;;;;;10.37;7.50;;;15.20;99.90;;;;;;5052024;28;20205;-61
2021/07/10 04:45:02;;;;;;;8.00;7.30;;;15.20;99.90;;;;;;5051581;28;20622;-62
2021/07/10 04:47:30;;;;;;;8.37;7.53;;;15.40;99.90;;;;;;5051472;28;20271;-62
2021/07/10 04:49:56;;;;;;;8.27;7.47;;;15.40;99.90;;;;;;5051397;28;20201;-62
2021/07/10 04:52:23;;;;;;;9.03;7.20;;;15.50;99.90;;;;;;5051599;28;20213;-61
2021/07/10 04:54:50;;;;;;;9.57;7.03;;;15.60;99.90;;;;;;5051377;28;20252;-61
2021/07/10 04:57:16;;;;;;;7.73;6.90;;;15.70;99.90;;;;;;5051541;28;20206;-61
2021/07/10 04:59:43;;;;;;;10.47;7.00;;;15.80;99.90;;;;;;5051322;28;20217;-62
2021/07/10 05:02:10;;;;;;;8.10;6.87;;;16.00;99.90;;;;;;5051419;28;20232;-62
2021/07/10 05:04:38;;;;;;;7.73;6.47;;;16.30;99.90;;;;;;5051146;28;20228;-62
2021/07/10 05:07:05;;;;;;;6.07;5.40;;;16.70;99.90;;;;;;5051182;28;20697;-64
2021/07/10 05:09:32;;;;;;;6.50;5.70;;;17.50;99.90;;;;;;5051335;28;20201;-61
2021/07/10 05:11:59;;;;;;;6.60;5.40;;;18.50;99.90;;;;;;5051710;28;20209;-61
2021/07/10 05:14:25;;;;;;;6.00;5.03;;;19.00;99.90;;;;;;5051032;28;20740;-62
2021/07/10 05:16:53;;;;;;;6.32;4.60;;;19.50;99.90;;;;;;5051108;28;20255;-61
2021/07/10 05:19:20;;;;;;;7.18;4.40;;;20.70;99.90;;;;;;5051040;28;20209;-64
2021/07/10 05:21:48;;;;;;;5.88;3.97;;;22.20;99.90;;;;;;5051126;28;20697;-63
2021/07/10 05:24:15;;;;;;;7.75;4.10;;;23.70;99.90;;;;;;5051139;28;20237;-62
2021/07/10 05:26:42;;;;;;;4.57;3.90;;;25.30;99.90;;;;;;5051074;28;20221;-62
2021/07/10 05:29:08;;;;;;;5.60;3.88;;;26.70;99.90;;;;;;5050792;28;20692;-62
2021/07/10 05:31:35;;;;;;;4.18;3.78;;;27.90;99.90;;;;;;5051017;28;20652;-63
2021/07/10 05:34:02;;;;;;;4.70;3.03;;;28.60;99.90;;;;;;5050656;28;20222;-63
2021/07/10 05:36:28;;;;;;;3.88;3.33;;;28.90;99.90;;;;;;5050667;28;20201;-63
2021/07/10 05:38:56;;;;;;;4.70;3.05;;;29.20;99.90;;;;;;5050722;28;20573;-64
2021/07/10 05:41:23;;;;;;;8.30;3.60;;;29.20;99.90;;;;;;5051082;28;20209;-64
2021/07/10 05:43:50;;;;;;;3.75;2.95;;;29.20;99.90;;;;;;5050540;28;20221;-63
2021/07/10 05:46:17;;;;;;;5.75;2.85;;;29.90;99.90;;;;;;5050662;28;20209;-63
2021/07/10 05:48:43;;;;;;;3.53;2.45;;;30.70;99.90;;;;;;5050502;28;20215;-63
2021/07/10 05:51:10;;;;;;;3.83;2.92;;;31.70;96.30;;;;;;5050684;28;20214;-62
2021/07/10 05:53:37;;;;;;;4.13;2.50;;;32.30;94.40;;;;;;5050633;28;20229;-62
2021/07/10 05:56:05;;;;;;;4.68;2.75;;;33.00;92.20;;;;;;5050797;28;20216;-62
2021/07/10 05:58:32;;;;;;;2.90;2.60;;;33.50;90.70;;;;;;5050320;28;20597;-62
2021/07/10 06:00:59;;;;;;;2.95;2.60;;;34.10;87.50;;;;;;5050544;28;20231;-63
2021/07/10 06:03:25;;;;;;;5.20;2.47;;;34.60;83.30;;;;;;5050177;28;20229;-63
2021/07/10 06:05:52;;;;;;;3.65;2.45;;;35.10;80.90;;;;;;5050649;28;20213;-63
2021/07/10 06:08:19;;;;;;;2.50;2.28;;;35.30;79.00;;;;;;5050730;28;20229;-63
2021/07/10 06:10:45;;;;;;;5.95;2.50;;;35.50;76.80;;;;;;5050616;28;20209;-64
2021/07/10 06:13:14;;;;;;;3.40;2.33;;;35.70;74.70;;;;;;5053923;28;20232;-63
2021/07/10 06:15:41;;;;;;;3.03;2.72;;;35.90;73.70;;;;;;5054149;28;20206;-62
2021/07/10 06:18:07;;;;;;;3.85;2.25;;;36.10;71.90;;;;;;5054125;28;20201;-62
2021/07/10 06:20:36;;;;;;;2.85;2.50;;;36.60;69.40;;;;;;5054870;28;20658;-62
2021/07/10 06:23:05;;;;;;;3.97;2.65;;;37.00;67.90;;;;;;5054628;28;20324;-62
2021/07/10 06:25:32;;;;;;;2.60;2.40;;;37.10;67.20;;;;;;5054224;28;20206;-63
2021/07/10 06:27:59;;;;;;;2.58;2.38;;;37.20;66.50;;;;;;5054542;28;20313;-62
2021/07/10 06:30:27;;;;;;;2.67;2.45;;;37.20;65.80;;;;;;5054233;28;20624;-63
2021/07/10 06:32:54;;;;;;;4.28;2.90;;;37.20;66.10;;;;;;5054087;28;20259;-62
2021/07/10 06:35:21;;;;;;;4.10;2.50;;;37.20;64.80;;;;;;5054346;28;20206;-62
2021/07/10 06:37:47;;;;;;;3.50;2.35;;;37.40;65.20;;;;;;5055132;28;20202;-61
2021/07/10 06:40:15;;;;;;;6.20;2.80;;;37.50;64.40;;;;;;5055363;28;20206;-61
2021/07/10 06:42:43;;;;;;;5.78;2.78;;;37.30;64.00;;;;;;5054177;28;20251;-62
2021/07/10 06:45:12;;;;;;;3.65;2.92;;;37.40;64.20;;;;;;5054252;28;20222;-62
2021/07/10 06:47:41;;;;;;;2.90;2.60;;;37.80;63.30;;;;;;5053855;28;20229;-61
2021/07/10 06:50:11;;;;;;;2.78;2.58;;;38.20;62.60;;;;;;5054124;28;20212;-62
2021/07/10 06:52:38;;;;;;;3.10;2.80;;;38.60;62.00;;;;;;5054017;28;20209;-63
2021/07/10 06:55:07;;;;;;;5.10;3.13;;;39.00;61.20;;;;;;5053996;28;20229;-63
2021/07/10 06:57:34;;;;;;;2.72;2.53;;;39.20;60.40;;;;;;5053519;28;20263;-63
2021/07/10 07:00:01;;;;;;;3.10;2.80;;;39.60;59.60;;;;;;5053429;28;20747;-63
2021/07/10 07:02:27;;;;;;;3.20;2.90;;;39.80;58.50;;;;;;5053660;28;20205;-66
2021/07/10 07:04:55;;;;;;;3.10;2.80;;;39.70;58.70;;;;;;5053320;28;20209;-61
2021/07/10 07:07:22;;;;;;;3.70;3.05;;;39.80;58.30;;;;;;5053319;28;20230;-62
2021/07/10 07:09:49;;;;;;;4.05;3.00;;;40.10;57.50;;;;;;5053413;28;20210;-62
2021/07/10 07:12:15;;;;;;;3.28;3.00;;;40.20;56.50;;;;;;5053317;28;20206;-62
2021/07/10 07:14:42;;;;;;;3.13;2.83;;;40.40;56.10;;;;;;5052644;28;20226;-67
2021/07/10 07:17:09;;;;;;;2.85;2.65;;;40.40;55.40;;;;;;5051859;28;20596;-65
2021/07/10 07:19:35;;;;;;;4.10;3.20;;;41.50;54.70;;;;;;5051654;28;20201;-62
2021/07/10 07:22:04;;;;;;;3.83;2.90;;;41.90;53.80;;;;;;5052214;28;20202;-62
2021/07/10 07:24:31;;;;;;;6.85;2.97;;;41.90;52.70;;;;;;5052006;28;20290;-63
2021/07/10 07:26:58;;;;;;;3.33;2.70;;;42.10;52.30;;;;;;5052431;28;20549;-61
2021/07/10 07:29:25;;;;;;;3.10;2.58;;;42.40;52.80;;;;;;5052745;28;20209;-61
2021/07/10 07:31:51;;;;;;;2.80;2.50;;;42.70;52.60;;;;;;5053086;28;20296;-61
2021/07/10 07:34:18;;;;;;;5.97;2.63;;;43.20;51.40;;;;;;5052620;28;20257;-61
2021/07/10 07:36:45;;;;;;;3.20;2.90;;;43.20;50.90;;;;;;5052965;28;20217;-63
2021/07/10 07:39:13;;;;;;;4.43;2.58;;;43.00;51.00;;;;;;5052746;28;20212;-63
2021/07/10 07:41:40;;;;;;;4.18;2.65;;;42.80;50.80;;;;;;5052467;28;20243;-62
2021/07/10 07:44:07;;;;;;;3.17;2.60;;;42.60;51.00;;;;;;5052546;28;20225;-62
2021/07/10 07:46:34;;;;;;;3.40;2.47;;;42.80;51.40;;;;;;5052634;28;20282;-61
2021/07/10 07:49:02;;;;;;;3.03;2.50;;;42.60;51.20;;;;;;5052626;28;20229;-61
2021/07/10 07:51:28;;;;;;;2.40;2.17;;;42.40;51.40;;;;;;5052734;28;20217;-62
2021/07/10 07:53:55;;;;;;;23.98;21.92;;;42.20;51.60;;;;;;5052377;28;20229;-62
2021/07/10 07:56:24;;;;;;;2.90;2.40;;;42.20;51.00;;;;;;5052921;28;20704;-62
2021/07/10 07:58:51;;;;;;;2.50;2.30;;;41.80;51.20;;;;;;5052403;28;20202;-64
2021/07/10 08:01:17;;;;;;;3.85;2.60;;;41.10;51.40;;;;;;5052782;28;20209;-61
2021/07/10 08:03:44;;;;;;;2.60;2.38;;;40.30;52.80;;;;;;5052764;28;20226;-60
2021/07/10 08:06:11;;;;;;;3.15;2.50;;;39.90;53.50;;;;;;5052885;28;20228;-61
2021/07/10 08:08:39;;;;;;;3.45;2.53;;;39.40;54.00;;;;;;5052473;28;20226;-61
2021/07/10 08:11:06;;;;;;;3.05;2.55;;;38.90;55.10;;;;;;5052821;28;20259;-61
2021/07/10 08:13:35;;;;;;;3.63;2.70;;;38.60;54.50;;;;;;5052557;28;20233;-61
2021/07/10 08:16:02;;;;;;;3.55;2.78;;;38.30;54.70;;;;;;5052730;28;20205;-61
2021/07/10 08:18:29;;;;;;;3.75;2.63;;;37.60;55.30;;;;;;5053136;28;20202;-61
2021/07/10 08:20:55;;;;;;;2.65;2.45;;;37.20;55.90;;;;;;5053820;28;20209;-61
2021/07/10 08:23:22;;;;;;;3.28;2.50;;;36.90;56.60;;;;;;5053164;28;20230;-61
2021/07/10 08:25:49;;;;;;;3.40;2.72;;;36.60;58.00;;;;;;5053480;28;20701;-61
2021/07/10 08:28:16;;;;;;;3.70;2.55;;;36.70;57.50;;;;;;5053058;28;20225;-61
2021/07/10 08:30:44;;;;;;;3.30;2.65;;;37.30;56.60;;;;;;5053254;28;20248;-61
2021/07/10 08:33:12;;;;;;;4.40;2.85;;;37.10;56.80;;;;;;5052552;28;20713;-61
2021/07/10 08:35:39;;;;;;;2.67;2.40;;;36.80;57.10;;;;;;5051813;28;20248;-60
2021/07/10 08:38:06;;;;;;;4.45;2.80;;;36.30;57.30;;;;;;5051975;28;20206;-61
2021/07/10 08:40:33;;;;;;;4.60;2.83;;;36.00;58.40;;;;;;5051874;28;20248;-61
2021/07/10 08:43:00;;;;;;;3.38;2.58;;;35.90;59.00;;;;;;5051473;28;20642;-61
2021/07/10 08:45:32;;;;;;;2.67;2.30;;;36.00;58.70;;;;;;5051358;28;20581;-61
2021/07/10 08:48:02;;;;;;;3.58;2.90;;;35.90;58.70;;;;;;5051459;28;20316;-60
2021/07/10 08:50:29;;;;;;;3.55;2.40;;;35.70;59.30;;;;;;5051662;28;20234;-60
2021/07/10 08:52:56;;;;;;;4.45;2.33;;;35.40;59.50;;;;;;5051372;28;20230;-60
2021/07/10 08:55:23;;;;;;;2.80;2.60;;;34.80;59.20;;;;;;5051100;28;20673;-60
2021/07/10 08:57:51;;;;;;;4.72;2.50;;;33.90;60.40;;;;;;5051261;28;20206;-60
2021/07/10 09:00:21;;;;;;;4.75;2.75;;;32.70;63.00;;;;;;5051316;28;20670;-60
2021/07/10 09:02:50;;;;;;;3.67;2.70;;;31.80;66.40;;;;;;5051101;28;20210;-60
2021/07/10 09:05:18;;;;;;;4.32;2.38;;;30.80;68.90;;;;;;5051312;28;20209;-60
2021/07/10 09:08:11;;;;;;;2.50;2.30;;;29.90;69.60;;;;;;5051145;28;20225;-60
2021/07/10 09:10:39;;;;;;;3.25;2.47;;;29.20;70.20;;;;;;5051720;28;20293;-60
2021/07/10 09:13:06;;;;;;;4.30;2.70;;;28.60;73.00;;;;;;5050963;28;20578;-60
2021/07/10 09:15:34;;;;;;;2.97;2.38;;;28.30;73.70;;;;;;5050919;28;20209;-60
2021/07/10 09:18:00;;;;;;;3.15;2.40;;;27.90;74.40;;;;;;5051131;28;20198;-60
2021/07/10 09:20:30;;;;;;;2.92;2.50;;;27.40;76.60;;;;;;5051072;28;20685;-59
2021/07/10 09:22:57;;;;;;;3.25;2.58;;;27.00;76.90;;;;;;5051604;28;20236;-59
2021/07/10 09:25:26;;;;;;;3.33;3.03;;;26.40;77.70;;;;;;5051267;28;20205;-60
2021/07/10 09:27:54;;;;;;;4.50;4.00;;;26.20;78.90;;;;;;5050615;28;20276;-60
2021/07/10 09:30:31;;;;;;;3.97;3.10;;;26.00;79.00;;;;;;5051027;28;20220;-60
2021/07/10 09:33:12;;;;;;;4.13;2.45;;;26.00;79.70;;;;;;5050823;28;20601;-60
2021/07/10 09:35:53;;;;;;;2.40;2.20;;;25.80;79.70;;;;;;5050690;28;20251;-60
2021/07/10 09:38:22;;;;;;;2.47;2.25;;;25.70;80.00;;;;;;5050896;28;20198;-60
2021/07/10 09:41:00;;;;;;;2.88;2.58;;;25.60;79.50;;;;;;5051590;28;20266;-61
2021/07/10 09:43:29;;;;;;;4.20;2.30;;;25.60;82.20;;;;;;5050529;28;20265;-60
2021/07/10 09:45:58;;;;;;;2.80;2.22;;;;;;;;;;5049867;28;20210;-60
2021/07/10 09:48:28;;;;;;;2.88;2.38;;;25.60;66.30;;;;;;5050342;28;20291;-60
2021/07/10 09:51:24;;;;;;;3.45;2.20;;;25.70;67.80;;;;;;5050992;28;20216;-60
2021/07/10 09:54:05;;;;;;;2.50;2.25;;;25.90;67.50;;;;;;5050597;28;20228;-60
2021/07/10 09:56:35;;;;;;;3.13;2.20;;;26.10;65.90;;;;;;5050856;28;20262;-60
2021/07/10 09:59:17;;;;;;;2.85;2.20;;;26.30;65.60;;;;;;5050484;28;20284;-60
2021/07/10 10:01:44;;;;;;;1.80;1.70;;;26.20;65.40;;;;;;5050464;28;20692;-60
2021/07/10 10:04:24;;;;;;;3.63;2.15;;;26.20;65.60;;;;;;5050317;28;20229;-60
2021/07/10 10:06:52;;;;;;;2.53;1.95;;;26.20;65.20;;;;;;5050517;28;20213;-60
2021/07/10 10:09:21;;;;;;;2.67;2.30;;;26.20;64.40;;;;;;5050503;28;20217;-60
2021/07/10 10:11:54;;;;;;;2.50;2.30;;;26.30;68.10;;;;;;5050330;28;20293;-60
2021/07/10 10:14:21;;;;;;;4.45;2.80;;;26.20;68.60;;;;;;5050146;28;20737;-60
2021/07/10 10:16:49;;;;;;;4.13;2.63;;;26.40;69.70;;;;;;5050342;28;20212;-60
2021/07/10 10:19:17;;;;;;;2.95;2.58;;;26.50;70.90;;;;;;5050195;28;20198;-60
2021/07/10 10:21:47;;;;;;;3.67;2.42;;;26.50;70.70;;;;;;5050323;28;20498;-60
2021/07/10 10:24:15;;;;;;;3.38;1.90;;;26.60;69.90;;;;;;5049911;28;20237;-60
2021/07/10 10:26:43;;;;;;;3.25;2.15;;;26.70;69.20;;;;;;5050229;28;20221;-60
2021/07/10 10:29:11;;;;;;;2.58;2.10;;;26.70;68.80;;;;;;5049926;28;20229;-60
2021/07/10 10:31:39;;;;;;;2.85;2.53;;;26.70;70.30;;;;;;5050145;28;20209;-59
2021/07/10 10:34:07;;;;;;;3.95;2.72;;;26.80;70.40;;;;;;5050040;28;20233;-60
2021/07/10 10:36:35;;;;;;;2.88;2.65;;;26.80;71.20;;;;;;5050035;28;20229;-60
2021/07/10 10:39:05;;;;;;;3.88;2.55;;;26.90;72.60;;;;;;5050165;28;20246;-60
2021/07/10 10:41:33;;;;;;;2.85;2.50;;;27.10;71.80;;;;;;5050618;28;20251;-59
2021/07/10 10:44:00;;;;;;;2.88;2.50;;;27.30;70.60;;;;;;5050039;28;20233;-60
2021/07/10 10:46:27;;;;;;;4.18;2.92;;;27.40;70.50;;;;;;5050267;28;20214;-60
2021/07/10 10:48:54;;;;;;;2.80;2.45;;;27.60;70.60;;;;;;5050516;28;20228;-60
2021/07/10 10:51:25;;;;;;;2.70;2.42;;;27.90;69.60;;;;;;5050279;28;20205;-61
2021/07/10 10:53:52;;;;;;;2.83;2.50;;;27.90;69.00;;;;;;5050165;28;20717;-61
2021/07/10 10:56:36;;;;;;;2.75;2.10;;;27.90;69.70;;;;;;5047650;28;20655;-60
2021/07/10 10:59:35;;;;;;;2.45;2.25;;;27.80;69.40;;;;;;5052768;28;20666;-61
2021/07/10 11:02:02;;;;;;;3.40;2.05;;;27.60;66.70;;;;;;5053219;28;20206;-60
2021/07/10 11:05:00;;;;;;;1.98;1.77;;;27.30;68.40;;;;;;5053501;28;20229;-60
2021/07/10 11:07:29;;;;;;;5.40;2.17;;;27.20;70.20;;;;;;5053508;28;20221;-60
2021/07/10 11:10:25;;;;;;;3.10;1.95;;;27.20;70.30;;;;;;5053314;28;20225;-60
2021/07/10 11:12:57;;;;;;;2.30;2.10;;;27.20;68.70;;;;;;5032125;28;20233;-61
2021/07/10 11:15:43;;;;;;;3.50;2.65;;;27.30;69.60;;;;;;5052953;28;20600;-64
2021/07/10 11:18:26;;;;;;;3.83;2.00;;;27.60;68.40;;;;;;5052828;28;20216;-62
2021/07/10 11:20:53;;;;;;;2.60;2.05;;;27.60;68.00;;;;;;5053425;28;20288;-64
2021/07/10 11:23:30;;;;;;;2.75;1.60;;;27.60;69.20;;;;;;5052935;28;20237;-65
2021/07/10 11:26:09;;;;;;;2.58;2.00;;;27.80;67.70;;;;;;5053023;28;20209;-62
2021/07/10 11:28:54;;;;;;;2.60;1.98;;;27.80;66.40;;;;;;5052522;28;20308;-63
2021/07/10 11:31:35;;;;;;;3.53;2.00;;;27.70;65.90;;;;;;5052927;28;20206;-63
2021/07/10 11:34:11;;;;;;;1.92;1.80;;;27.70;67.00;;;;;;5052366;28;20229;-63
2021/07/10 11:36:58;;;;;;;2.10;1.90;;;27.60;66.30;;;;;;5052661;28;20877;-64
2021/07/10 11:39:36;;;;;;;2.33;2.10;;;27.50;67.60;;;;;;5052325;28;20580;-62
2021/07/10 11:42:32;;;;;;;2.08;1.75;;;27.60;68.80;;;;;;5052334;28;20217;-65
2021/07/10 11:45:13;;;;;;;3.75;2.20;;;28.00;69.80;;;;;;5052358;28;20240;-67
2021/07/10 11:47:42;;;;;;;3.95;2.20;;;28.20;69.10;;;;;;5052912;28;20205;-65
2021/07/10 11:50:11;;;;;;;4.22;1.92;;;28.40;68.60;;;;;;5052435;28;20740;-65
2021/07/10 11:52:38;;;;;;;2.97;2.13;;;28.50;67.20;;;;;;5052363;28;20209;-65
2021/07/10 11:55:08;;;;;;;3.00;2.10;;;28.30;67.40;;;;;;5052470;28;20212;-64
2021/07/10 11:57:37;;;;;;;3.65;2.08;;;28.20;68.10;;;;;;5053453;28;20202;-60
2021/07/10 12:00:07;;;;;;;3.55;2.10;;;28.10;68.90;;;;;;5053350;28;20197;-61
2021/07/10 12:02:34;;;;;;;2.67;2.00;;;27.90;69.80;;;;;;5052987;28;20209;-59
2021/07/10 12:05:02;;;;;;;2.42;1.80;;;27.90;70.20;;;;;;5052404;28;20205;-61
2021/07/10 12:07:29;;;;;;;2.70;1.80;;;27.90;66.10;;;;;;5052259;28;20209;-64
2021/07/10 12:09:56;;;;;;;2.97;2.10;;;27.80;66.40;;;;;;5050278;28;20448;-62
2021/07/10 12:12:23;;;;;;;3.05;2.50;;;27.90;66.90;;;;;;5052390;28;20232;-62
2021/07/10 12:14:51;;;;;;;2.50;2.30;;;28.10;67.30;;;;;;5052455;28;20283;-62
2021/07/10 12:17:19;;;;;;;2.92;2.25;;;28.30;68.00;;;;;;5051921;28;20602;-62
2021/07/10 12:19:47;;;;;;;3.20;2.90;;;28.60;67.50;;;;;;5052400;28;20210;-62
2021/07/10 12:22:13;;;;;;;2.58;2.20;;;28.80;67.30;;;;;;5051937;28;20212;-62
2021/07/10 12:24:41;;;;;;;4.75;2.30;;;28.90;65.60;;;;;;5050616;28;20431;-65
2021/07/10 12:27:10;;;;;;;4.22;2.30;;;29.00;64.40;;;;;;5051867;28;20592;-65
2021/07/10 12:29:37;;;;;;;2.00;1.80;;;29.30;63.90;;;;;;5052117;28;20244;-64
2021/07/10 12:32:04;;;;;;;2.30;1.80;;;29.40;63.20;;;;;;5051963;28;20202;-64
2021/07/10 12:34:32;;;;;;;4.05;2.47;;;29.30;63.50;;;;;;5051475;28;20709;-64
2021/07/10 12:37:00;;;;;;;2.00;1.80;;;29.20;64.10;;;;;;5051752;28;20209;-64
2021/07/10 12:39:28;;;;;;;2.30;1.70;;;29.10;63.80;;;;;;5051719;28;20578;-64
2021/07/10 12:41:57;;;;;;;2.85;1.67;;;29.10;63.30;;;;;;5051821;28;20210;-64
2021/07/10 12:44:28;;;;;;;2.00;1.80;;;28.90;63.10;;;;;;5051157;28;20233;-64
2021/07/10 12:46:58;;;;;;;2.08;1.88;;;28.70;63.40;;;;;;5051145;28;20658;-64
2021/07/10 12:49:27;;;;;;;2.83;1.70;;;28.30;64.60;;;;;;5051388;28;20232;-63
2021/07/10 12:51:56;;;;;;;2.42;1.90;;;28.10;65.00;;;;;;5051245;28;20727;-66